Terminal Aerodrome Forecast
Issued by NWS

Home | Current Version | Previous Version | Text Only | Print | Product List | Glossary On
Versions: 1 2 3 4 5 6 7 8 9 10 11 12 13 14 15 16 17 18 19
000
FTAK31 PAJN 221100
TAFASI
TAF
PASI 221123Z 2212/2312 12007KT P6SM -SHRA SCT015 BKN035 OVC050
     FM221800 16008KT P6SM -SHRA VCTS BKN035CB OVC040
     FM230100 16004KT P6SM -SHRA SCT035 OVC045=

USA.gov is the U.S. government's official web portal to all federal, state and local government web resources and services.